createdAt,value
2023-01-29T00:01:40.348Z,102087.41
2023-01-29T00:06:43.159Z,102084.88
2023-01-29T00:11:45.580Z,102082.78
2023-01-29T00:16:49.050Z,102081.75
2023-01-29T00:21:52.009Z,102091.13
2023-01-29T00:26:56.554Z,102089.03
2023-01-29T00:32:02.502Z,102078.78
2023-01-29T00:37:09.023Z,102075.88
2023-01-29T00:42:30.887Z,102072.72
2023-01-29T00:52:57.699Z,102073.13
2023-01-29T00:58:07.719Z,102080.22
2023-01-29T01:08:48.669Z,102082.31
2023-01-29T01:13:55.151Z,102074.38
2023-01-29T01:19:03.529Z,102077.31
2023-01-29T01:24:08.146Z,102087.53
2023-01-29T01:29:12.652Z,102091.53
2023-01-29T01:34:14.593Z,102083.59
2023-01-29T01:39:25.278Z,102099.88
2023-01-29T01:45:08.836Z,102095.28
2023-01-29T01:50:44.092Z,102089.84
2023-01-29T01:55:52.037Z,102093.41
2023-01-29T02:05:35.291Z,102089.63
2023-01-29T02:10:49.059Z,102074.19
2023-01-29T02:15:54.505Z,102084.84
2023-01-29T02:21:26.372Z,102079.19
2023-01-29T02:26:54.820Z,102085.44
2023-01-29T02:32:03.886Z,102086.91
2023-01-29T02:37:15.084Z,102089.41
2023-01-29T02:42:31.422Z,102093.16
2023-01-29T02:48:12.389Z,102092.13
2023-01-29T02:53:38.338Z,102088.19
2023-01-29T02:59:13.670Z,102080.69
2023-01-29T03:04:25.878Z,102079.25
2023-01-29T03:09:41.690Z,102080.28
2023-01-29T03:15:12.038Z,102089.47
2023-01-29T03:20:32.122Z,102094.47
2023-01-29T03:26:06.153Z,102101.56
2023-01-29T03:31:36.236Z,102106.16
2023-01-29T03:36:59.718Z,102109.47
2023-01-29T03:42:47.972Z,102104.88
2023-01-29T03:48:16.686Z,102106.16
2023-01-29T03:53:58.484Z,102105.97
2023-01-29T03:59:27.876Z,102102.00
2023-01-29T04:04:59.229Z,102108.06
2023-01-29T04:10:12.015Z,102104.09
2023-01-29T04:15:22.231Z,102108.28
2023-01-29T04:20:28.650Z,102118.31
2023-01-29T04:25:53.932Z,102125.38
2023-01-29T04:31:18.835Z,102121.03
2023-01-29T04:36:36.079Z,102125.38
2023-01-29T04:41:50.241Z,102131.22
2023-01-29T04:47:13.518Z,102124.56
2023-01-29T04:52:39.881Z,102135.81
2023-01-29T04:57:55.381Z,102148.53
2023-01-29T05:12:30.636Z,102155.19
2023-01-29T05:32:14.261Z,102175.00
2023-01-29T05:37:17.142Z,102174.59
2023-01-29T05:42:20.140Z,102186.03
2023-01-29T05:47:22.006Z,102199.59
2023-01-29T05:52:23.855Z,102203.34
2023-01-29T05:57:25.743Z,102212.72
2023-01-29T06:02:32.365Z,102214.38
2023-01-29T06:07:34.349Z,102226.88
2023-01-29T06:12:37.585Z,102236.25
2023-01-29T06:17:39.392Z,102238.94
2023-01-29T06:22:41.487Z,102238.72
2023-01-29T06:27:45.874Z,102251.41
2023-01-29T06:32:47.679Z,102256.19
2023-01-29T06:37:49.516Z,102250.78
2023-01-29T06:42:51.379Z,102262.03
2023-01-29T06:48:01.397Z,102265.34
2023-01-29T06:53:03.497Z,102273.03
2023-01-29T06:58:07.270Z,102280.91
2023-01-29T07:03:10.641Z,102277.78
2023-01-29T07:08:12.449Z,102289.22
2023-01-29T07:13:14.534Z,102295.00
2023-01-29T07:18:16.453Z,102295.59
2023-01-29T07:23:18.694Z,102311.16
2023-01-29T07:28:20.872Z,102318.22
2023-01-29T07:33:22.677Z,102325.88
2023-01-29T07:38:28.519Z,102338.16
2023-01-29T07:43:31.309Z,102348.72
2023-01-29T07:48:33.334Z,102356.19
2023-01-29T07:53:38.174Z,102359.53
2023-01-29T07:58:39.992Z,102378.69
2023-01-29T08:03:41.877Z,102388.31
2023-01-29T08:08:43.674Z,102391.47
2023-01-29T08:13:46.738Z,102397.59
2023-01-29T08:18:48.950Z,102405.44
2023-01-29T08:23:51.284Z,102420.53
2023-01-29T08:28:53.875Z,102430.03
2023-01-29T08:33:55.725Z,102434.72
2023-01-29T08:38:57.572Z,102440.50
2023-01-29T08:44:06.139Z,102436.84
2023-01-29T08:49:09.715Z,102448.00
2023-01-29T08:54:11.545Z,102451.28
2023-01-29T08:59:13.760Z,102458.97
2023-01-29T09:04:15.797Z,102458.47
2023-01-29T09:09:18.517Z,102458.72
2023-01-29T09:14:20.686Z,102464.72
2023-01-29T09:19:22.914Z,102466.28
2023-01-29T09:24:24.816Z,102471.16
2023-01-29T09:29:26.767Z,102477.91
2023-01-29T09:34:28.589Z,102484.28
2023-01-29T09:39:30.417Z,102487.56
2023-01-29T09:44:53.107Z,102483.38
2023-01-29T09:50:00.264Z,102493.16
2023-01-29T09:55:27.560Z,102495.88
2023-01-29T10:00:48.825Z,102498.13
2023-01-29T10:06:23.139Z,102504.03
2023-01-29T10:11:42.842Z,102496.50
2023-01-29T10:17:14.753Z,102505.84
2023-01-29T10:22:48.171Z,102511.38
2023-01-29T10:27:59.684Z,102507.00
2023-01-29T10:33:12.369Z,102511.53
2023-01-29T10:38:35.567Z,102510.28
2023-01-29T10:44:01.479Z,102507.94
2023-01-29T10:49:07.188Z,102502.78
2023-01-29T10:54:22.600Z,102493.34
2023-01-29T10:59:37.075Z,102482.91
2023-01-29T11:04:39.335Z,102477.38
2023-01-29T11:09:54.909Z,102466.25
2023-01-29T11:15:18.030Z,102465.88
2023-01-29T11:20:28.165Z,102463.44
2023-01-29T11:25:32.787Z,102438.50
2023-01-29T11:30:38.676Z,102436.81
2023-01-29T11:35:40.556Z,102427.97
2023-01-29T11:40:47.930Z,102420.28
2023-01-29T11:45:52.650Z,102419.91
2023-01-29T11:51:00.639Z,102417.97
2023-01-29T11:56:17.191Z,102408.25
2023-01-29T12:01:31.176Z,102406.75
2023-01-29T12:06:41.407Z,102395.59
2023-01-29T12:11:43.491Z,102401.81
2023-01-29T12:17:03.867Z,102398.28
2023-01-29T12:22:44.447Z,102391.19
2023-01-29T12:28:09.589Z,102377.25
2023-01-29T12:33:36.893Z,102371.63
2023-01-29T12:38:38.728Z,102369.81
2023-01-29T12:43:48.061Z,102362.97
2023-01-29T12:48:50.875Z,102354.63
2023-01-29T12:54:22.066Z,102348.44
2023-01-29T12:59:33.101Z,102345.88
2023-01-29T13:04:47.160Z,102337.84
2023-01-29T13:10:01.861Z,102332.63
2023-01-29T13:15:35.935Z,102317.19
2023-01-29T13:20:41.148Z,102312.81
2023-01-29T13:25:43.672Z,102310.34
2023-01-29T13:30:49.048Z,102311.50
2023-01-29T13:35:59.400Z,102296.63
2023-01-29T13:41:04.708Z,102286.34
2023-01-29T13:46:17.850Z,102293.06
2023-01-29T13:51:22.785Z,102291.50
2023-01-29T13:56:33.767Z,102296.59
2023-01-29T14:01:47.814Z,102289.91
2023-01-29T14:07:04.537Z,102283.38
2023-01-29T14:12:23.134Z,102284.34
2023-01-29T14:17:27.002Z,102288.41
2023-01-29T14:22:30.516Z,102295.41
2023-01-29T14:27:33.841Z,102297.94
2023-01-29T14:32:40.557Z,102297.72
2023-01-29T14:37:47.447Z,102304.50
2023-01-29T14:43:03.608Z,102301.28
2023-01-29T14:48:24.248Z,102305.06
2023-01-29T14:53:53.333Z,102298.28
2023-01-29T14:59:02.954Z,102304.34
2023-01-29T15:04:19.016Z,102309.09
2023-01-29T15:09:36.635Z,102313.28
2023-01-29T15:14:52.199Z,102316.38
2023-01-29T15:19:55.056Z,102311.97
2023-01-29T15:25:13.927Z,102325.28
2023-01-29T15:30:20.303Z,102330.63
2023-01-29T15:35:38.923Z,102339.88
2023-01-29T15:40:58.070Z,102346.88
2023-01-29T15:46:08.935Z,102340.25
2023-01-29T15:51:19.787Z,102340.47
2023-01-29T15:56:35.020Z,102343.75
2023-01-29T16:01:37.055Z,102341.59
2023-01-29T16:06:41.879Z,102344.00
2023-01-29T16:11:44.428Z,102344.84
2023-01-29T16:16:48.672Z,102350.28
2023-01-29T16:22:04.146Z,102357.88
2023-01-29T16:27:14.043Z,102357.34
2023-01-29T16:32:16.457Z,102364.88
2023-01-29T16:37:21.915Z,102361.84
2023-01-29T16:42:35.879Z,102366.75
2023-01-29T16:47:41.800Z,102370.22
2023-01-29T16:53:11.825Z,102369.38
2023-01-29T16:58:24.426Z,102381.47
2023-01-29T17:03:28.579Z,102389.47
2023-01-29T17:08:33.597Z,102382.44
2023-01-29T17:13:40.006Z,102374.09
2023-01-29T17:18:41.907Z,102397.59
2023-01-29T17:23:44.021Z,102395.31
2023-01-29T17:28:48.888Z,102399.31
2023-01-29T17:33:53.626Z,102405.22
2023-01-29T17:38:55.505Z,102412.97
2023-01-29T17:43:57.412Z,102417.22
2023-01-29T17:48:59.300Z,102434.66
2023-01-29T17:54:01.192Z,102438.88
2023-01-29T17:59:19.509Z,102445.16
2023-01-29T18:04:21.453Z,102446.03
2023-01-29T18:09:25.668Z,102461.13
2023-01-29T18:14:27.589Z,102461.56
2023-01-29T18:19:31.270Z,102472.06
2023-01-29T18:24:58.623Z,102477.94
2023-01-29T18:30:00.451Z,102484.00
2023-01-29T18:35:03.257Z,102482.09
2023-01-29T18:40:06.001Z,102489.44
2023-01-29T18:45:08.666Z,102496.75
2023-01-29T18:50:12.179Z,102500.53
2023-01-29T18:55:14.215Z,102502.63
2023-01-29T19:00:19.565Z,102501.81
2023-01-29T19:05:23.788Z,102496.81
2023-01-29T19:10:26.415Z,102498.94
2023-01-29T19:15:28.414Z,102504.41
2023-01-29T19:20:31.644Z,102516.09
2023-01-29T19:25:37.025Z,102519.66
2023-01-29T19:30:38.939Z,102517.78
2023-01-29T19:35:45.269Z,102527.00
2023-01-29T19:40:48.437Z,102527.41
2023-01-29T19:45:58.289Z,102539.53
2023-01-29T19:51:04.337Z,102538.28
2023-01-29T19:56:08.675Z,102541.41
2023-01-29T20:01:19.187Z,102558.75
2023-01-29T20:06:25.148Z,102553.09
2023-01-29T20:11:27.033Z,102547.66
2023-01-29T20:16:29.100Z,102553.72
2023-01-29T20:21:31.037Z,102553.25
2023-01-29T20:26:33.434Z,102555.75
2023-01-29T20:31:35.485Z,102557.81
2023-01-29T20:36:37.454Z,102561.16
2023-01-29T20:41:44.018Z,102558.22
2023-01-29T20:46:46.402Z,102569.94
2023-01-29T20:51:48.204Z,102589.34
2023-01-29T20:56:50.078Z,102589.75
2023-01-29T21:01:52.135Z,102591.19
2023-01-29T21:06:54.038Z,102593.69
2023-01-29T21:11:55.994Z,102593.06
2023-01-29T21:16:57.897Z,102592.44
2023-01-29T21:21:59.825Z,102596.19
2023-01-29T21:27:03.264Z,102597.63
2023-01-29T21:32:06.068Z,102591.78
2023-01-29T21:37:09.379Z,102600.09
2023-01-29T21:42:30.349Z,102599.22
2023-01-29T21:47:35.777Z,102592.72
2023-01-29T21:52:38.154Z,102592.28
2023-01-29T21:57:40.257Z,102592.50
2023-01-29T22:02:42.165Z,102592.69
2023-01-29T22:07:44.442Z,102596.84
2023-01-29T22:12:46.766Z,102594.75
2023-01-29T22:17:49.111Z,102598.88
2023-01-29T22:22:50.922Z,102594.91
2023-01-29T22:27:52.825Z,102590.47
2023-01-29T22:32:57.220Z,102590.88
2023-01-29T22:37:59.850Z,102589.59
2023-01-29T22:43:01.502Z,102591.19
2023-01-29T22:48:03.449Z,102594.09
2023-01-29T22:53:05.635Z,102591.16
2023-01-29T22:58:07.442Z,102588.19
2023-01-29T23:03:12.306Z,102585.25
2023-01-29T23:08:14.776Z,102586.47
2023-01-29T23:13:21.702Z,102581.06
2023-01-29T23:18:23.862Z,102578.56
2023-01-29T23:23:29.577Z,102586.88
2023-01-29T23:28:32.867Z,102580.81
2023-01-29T23:33:38.305Z,102589.78
2023-01-29T23:38:41.458Z,102592.69
2023-01-29T23:43:53.075Z,102596.03
2023-01-29T23:48:54.873Z,102589.13
2023-01-29T23:53:56.783Z,102597.47
2023-01-29T23:58:59.114Z,102594.94
